createdAt,value
2022-12-26T00:01:45.765Z,160.18
2022-12-26T00:04:50.657Z,136.80
2022-12-26T00:06:59.489Z,164.30
2022-12-26T00:09:26.753Z,155.75
2022-12-26T00:11:54.225Z,144.68
2022-12-26T00:14:20.965Z,161.82
2022-12-26T00:16:48.280Z,145.35
2022-12-26T00:19:15.230Z,145.98
2022-12-26T00:21:42.080Z,125.40
2022-12-26T00:24:11.817Z,127.97
2022-12-26T00:26:38.806Z,92.35
2022-12-26T00:29:06.174Z,96.13
2022-12-26T00:31:34.420Z,80.00
2022-12-26T00:34:01.229Z,80.10
2022-12-26T00:36:33.556Z,73.78
2022-12-26T00:39:04.718Z,59.97
2022-12-26T00:41:32.069Z,65.72
2022-12-26T00:43:59.523Z,54.42
2022-12-26T00:46:27.078Z,60.15
2022-12-26T00:48:54.379Z,52.97
2022-12-26T00:51:21.711Z,61.78
2022-12-26T00:53:48.762Z,46.22
2022-12-26T00:56:16.146Z,55.10
2022-12-26T00:58:43.518Z,57.85
2022-12-26T01:01:18.386Z,52.70
2022-12-26T01:03:46.810Z,52.28
2022-12-26T01:06:14.891Z,50.83
2022-12-26T01:08:42.381Z,51.22
2022-12-26T01:11:12.132Z,50.20
2022-12-26T01:13:39.564Z,47.05
2022-12-26T01:16:08.118Z,44.22
2022-12-26T01:18:35.728Z,49.58
2022-12-26T01:21:05.918Z,47.67
2022-12-26T01:23:32.722Z,50.03
2022-12-26T01:26:15.865Z,60.67
2022-12-26T01:28:48.169Z,52.70
2022-12-26T01:31:15.471Z,61.22
2022-12-26T01:33:43.975Z,62.83
2022-12-26T01:36:11.291Z,68.88
2022-12-26T01:38:38.428Z,70.18
2022-12-26T01:41:17.473Z,105.68
2022-12-26T01:44:00.274Z,74.82
2022-12-26T01:46:44.146Z,81.10
2022-12-26T01:49:21.503Z,92.82
2022-12-26T01:51:57.844Z,90.80
2022-12-26T01:54:38.270Z,72.78
2022-12-26T01:57:17.654Z,87.15
2022-12-26T01:59:46.801Z,74.38
2022-12-26T02:02:15.337Z,79.60
2022-12-26T02:05:08.358Z,90.95
2022-12-26T02:07:38.615Z,59.85
2022-12-26T02:10:13.105Z,61.88
2022-12-26T02:12:41.233Z,71.93
2022-12-26T02:15:11.470Z,59.85
2022-12-26T02:17:39.493Z,78.03
2022-12-26T02:20:24.134Z,76.07
2022-12-26T02:23:06.941Z,90.28
2022-12-26T02:25:46.655Z,84.82
2022-12-26T02:28:37.146Z,74.97
2022-12-26T02:31:40.898Z,76.05
2022-12-26T02:34:33.434Z,97.78
2022-12-26T02:37:45.054Z,95.18
2022-12-26T02:40:46.596Z,77.25
2022-12-26T02:43:23.543Z,68.57
2022-12-26T02:46:29.715Z,60.83
2022-12-26T02:49:16.810Z,71.80
2022-12-26T02:52:25.877Z,73.68
2022-12-26T02:55:28.899Z,52.53
2022-12-26T02:58:40.454Z,50.83
2022-12-26T03:01:36.750Z,49.33
2022-12-26T03:04:27.683Z,52.00
2022-12-26T03:07:17.126Z,48.08
2022-12-26T03:10:04.964Z,54.20
2022-12-26T03:13:02.424Z,57.67
2022-12-26T03:15:53.015Z,57.38
2022-12-26T03:18:57.962Z,55.92
2022-12-26T03:21:12.697Z,55.85
2022-12-26T03:23:42.544Z,60.47
2022-12-26T03:26:41.073Z,52.30
2022-12-26T03:29:32.562Z,51.70
2022-12-26T03:32:00.885Z,54.22
2022-12-26T03:34:28.419Z,45.55
2022-12-26T03:37:07.898Z,52.97
2022-12-26T03:40:24.797Z,53.88
2022-12-26T03:43:18.781Z,42.75
2022-12-26T03:46:23.022Z,52.95
2022-12-26T03:49:14.225Z,48.40
2022-12-26T03:52:07.515Z,49.58
2022-12-26T03:55:06.003Z,49.40
2022-12-26T03:57:58.198Z,47.08
2022-12-26T04:00:46.326Z,46.95
2022-12-26T04:03:34.121Z,47.03
2022-12-26T04:06:22.642Z,43.53
2022-12-26T04:09:29.585Z,41.50
2022-12-26T04:12:17.089Z,37.47
2022-12-26T04:15:08.975Z,43.83
2022-12-26T04:18:04.564Z,39.00
2022-12-26T04:20:46.910Z,35.17
2022-12-26T04:23:47.708Z,37.00
2022-12-26T04:26:40.297Z,32.25
2022-12-26T04:29:25.662Z,32.92
2022-12-26T04:32:21.042Z,39.45
2022-12-26T04:35:15.037Z,32.00
2022-12-26T04:38:05.166Z,30.63
2022-12-26T04:40:56.944Z,31.27
2022-12-26T04:43:48.569Z,29.13
2022-12-26T04:46:20.759Z,26.40
2022-12-26T04:49:08.916Z,29.20
2022-12-26T04:51:36.460Z,30.00
2022-12-26T04:54:06.782Z,29.70
2022-12-26T04:56:33.815Z,29.38
2022-12-26T04:59:00.803Z,29.45
2022-12-26T05:01:46.261Z,29.73
2022-12-26T05:04:33.654Z,33.22
2022-12-26T05:07:20.906Z,32.95
2022-12-26T05:09:53.783Z,32.33
2022-12-26T05:12:21.579Z,35.83
2022-12-26T05:14:48.340Z,34.00
2022-12-26T05:17:34.136Z,33.08
2022-12-26T05:20:20.206Z,34.72
2022-12-26T05:23:06.006Z,35.25
2022-12-26T05:25:56.784Z,35.28
2022-12-26T05:31:37.188Z,38.60
2022-12-26T05:34:22.555Z,43.03
2022-12-26T05:37:03.476Z,43.90
2022-12-26T05:39:42.661Z,39.45
2022-12-26T05:42:09.976Z,41.70
2022-12-26T05:44:36.913Z,43.15
2022-12-26T05:47:04.069Z,41.00
2022-12-26T05:49:34.337Z,41.60
2022-12-26T05:52:01.135Z,39.80
2022-12-26T05:54:28.101Z,43.08
2022-12-26T05:56:55.104Z,40.90
2022-12-26T05:59:21.855Z,43.25
2022-12-26T06:01:49.054Z,41.47
2022-12-26T06:04:15.974Z,45.03
2022-12-26T06:06:42.819Z,43.60
2022-12-26T06:09:09.617Z,43.63
2022-12-26T06:11:36.389Z,41.50
2022-12-26T06:14:04.904Z,40.00
2022-12-26T06:16:31.986Z,47.08
2022-12-26T06:18:58.753Z,46.67
2022-12-26T06:21:26.447Z,46.28
2022-12-26T06:23:53.496Z,50.63
2022-12-26T06:26:20.721Z,48.08
2022-12-26T06:28:48.172Z,46.90
2022-12-26T06:31:21.638Z,47.63
2022-12-26T06:33:52.007Z,46.05
2022-12-26T06:36:22.692Z,48.83
2022-12-26T06:38:50.542Z,45.00
2022-12-26T06:41:19.012Z,51.88
2022-12-26T06:43:45.705Z,50.90
2022-12-26T06:46:19.951Z,54.20
2022-12-26T06:48:47.025Z,50.53
2022-12-26T06:51:17.008Z,47.72
2022-12-26T06:54:07.903Z,51.80
2022-12-26T06:59:19.290Z,53.10
2022-12-26T07:01:54.859Z,51.65
2022-12-26T07:04:21.762Z,55.17
2022-12-26T07:06:49.363Z,49.72
2022-12-26T07:09:18.555Z,53.60
2022-12-26T07:11:50.244Z,55.63
2022-12-26T07:14:35.107Z,50.88
2022-12-26T07:17:10.270Z,53.03
2022-12-26T07:19:38.241Z,53.38
2022-12-26T07:22:08.419Z,54.80
2022-12-26T07:24:35.453Z,53.17
2022-12-26T07:27:02.737Z,59.47
2022-12-26T07:29:29.570Z,56.38
2022-12-26T07:31:58.405Z,64.13
2022-12-26T07:34:31.609Z,57.53
2022-12-26T07:37:03.628Z,60.92
2022-12-26T07:39:34.140Z,64.22
2022-12-26T07:42:01.586Z,62.28
2022-12-26T07:44:30.691Z,61.50
2022-12-26T07:46:58.805Z,62.03
2022-12-26T07:49:26.095Z,58.53
2022-12-26T07:51:52.923Z,62.88
2022-12-26T07:54:19.758Z,61.20
2022-12-26T07:56:46.448Z,57.78
2022-12-26T07:59:17.101Z,61.38
2022-12-26T08:01:44.428Z,59.92
2022-12-26T08:04:12.593Z,54.85
2022-12-26T08:06:39.664Z,55.17
2022-12-26T08:09:06.736Z,56.22
2022-12-26T08:11:35.267Z,58.17
2022-12-26T08:14:02.318Z,54.03
2022-12-26T08:16:29.545Z,58.80
2022-12-26T08:18:56.278Z,54.35
2022-12-26T08:21:23.364Z,49.80
2022-12-26T08:23:50.344Z,52.55
2022-12-26T08:26:22.829Z,47.17
2022-12-26T08:28:51.727Z,49.33
2022-12-26T08:31:20.712Z,45.33
2022-12-26T08:33:48.595Z,46.45
2022-12-26T08:36:19.314Z,44.15
2022-12-26T08:38:46.724Z,41.45
2022-12-26T08:41:14.247Z,41.83
2022-12-26T08:46:28.019Z,38.35
2022-12-26T08:48:55.219Z,33.55
2022-12-26T08:51:25.203Z,32.88
2022-12-26T08:53:54.914Z,33.13
2022-12-26T08:56:24.777Z,34.10
2022-12-26T08:58:54.431Z,30.40
2022-12-26T09:01:23.449Z,33.00
2022-12-26T09:03:55.262Z,31.15
2022-12-26T09:06:23.071Z,31.77
2022-12-26T09:08:50.315Z,34.00
2022-12-26T09:11:20.044Z,34.20
2022-12-26T09:13:47.521Z,32.63
2022-12-26T09:16:21.498Z,31.58
2022-12-26T09:18:49.145Z,28.35
2022-12-26T09:21:16.397Z,24.77
2022-12-26T09:23:43.446Z,29.45
2022-12-26T09:26:12.791Z,28.10
2022-12-26T09:28:40.215Z,30.35
2022-12-26T09:31:15.776Z,29.50
2022-12-26T09:33:42.419Z,29.02
2022-12-26T09:36:14.712Z,27.00
2022-12-26T09:38:42.796Z,23.15
2022-12-26T09:41:15.354Z,26.75
2022-12-26T09:43:49.917Z,26.13
2022-12-26T09:46:32.930Z,24.67
2022-12-26T09:49:15.223Z,24.13
2022-12-26T09:51:46.890Z,20.60
2022-12-26T09:54:36.228Z,20.25
2022-12-26T09:57:15.253Z,18.23
2022-12-26T09:59:50.012Z,20.15
2022-12-26T10:02:23.407Z,21.02
2022-12-26T10:04:51.052Z,19.27
2022-12-26T10:07:27.145Z,16.15
2022-12-26T10:10:14.063Z,18.88
2022-12-26T10:13:05.077Z,17.85
2022-12-26T10:15:43.235Z,17.45
2022-12-26T10:18:15.777Z,19.95
2022-12-26T10:21:26.604Z,16.00
2022-12-26T10:24:24.294Z,20.60
2022-12-26T10:26:57.558Z,17.55
2022-12-26T10:29:52.819Z,17.58
2022-12-26T10:32:35.870Z,18.55
2022-12-26T10:35:30.135Z,19.75
2022-12-26T10:38:05.592Z,15.15
2022-12-26T10:40:39.447Z,14.63
2022-12-26T10:43:29.712Z,14.32
2022-12-26T10:46:26.470Z,13.73
2022-12-26T10:48:53.875Z,12.43
2022-12-26T10:51:20.518Z,11.65
2022-12-26T10:53:50.427Z,11.38
2022-12-26T10:56:18.450Z,8.98
2022-12-26T10:58:47.674Z,13.13
2022-12-26T11:01:53.147Z,8.93
2022-12-26T11:05:01.901Z,11.10
2022-12-26T11:07:12.939Z,13.57
2022-12-26T11:09:42.987Z,12.82
2022-12-26T11:12:44.131Z,11.35
2022-12-26T11:15:24.324Z,10.57
2022-12-26T11:17:53.577Z,11.88
2022-12-26T11:20:22.121Z,11.77
2022-12-26T11:22:52.205Z,9.07
2022-12-26T11:25:30.596Z,9.02
2022-12-26T11:28:20.283Z,11.25
2022-12-26T11:30:51.215Z,12.57
2022-12-26T11:33:23.862Z,18.10
2022-12-26T11:36:09.860Z,17.50
2022-12-26T11:38:51.329Z,12.52
2022-12-26T11:41:33.191Z,10.50
2022-12-26T11:44:21.128Z,10.93
2022-12-26T11:46:59.250Z,10.40
2022-12-26T11:49:34.303Z,6.75
2022-12-26T11:52:22.287Z,8.40
2022-12-26T11:54:50.757Z,8.77
2022-12-26T11:57:32.155Z,10.88
2022-12-26T12:00:22.256Z,8.05
2022-12-26T12:02:49.336Z,10.15
2022-12-26T12:05:37.826Z,6.75
2022-12-26T12:08:25.702Z,8.40
2022-12-26T12:11:04.416Z,6.63
2022-12-26T12:13:37.168Z,8.60
2022-12-26T12:16:38.078Z,6.28
2022-12-26T12:19:25.404Z,5.63
2022-12-26T12:22:16.371Z,3.45
2022-12-26T12:25:02.624Z,4.05
2022-12-26T12:27:47.468Z,2.00
2022-12-26T12:30:24.806Z,2.97
2022-12-26T12:33:21.318Z,2.42
2022-12-26T12:36:10.472Z,2.95
2022-12-26T12:39:00.613Z,1.70
2022-12-26T12:41:43.171Z,3.63
2022-12-26T12:44:35.833Z,2.80
2022-12-26T12:47:31.501Z,2.60
2022-12-26T12:50:37.748Z,2.40
2022-12-26T12:53:37.297Z,4.53
2022-12-26T12:56:25.519Z,5.20
2022-12-26T12:59:22.685Z,2.97
2022-12-26T13:02:08.532Z,2.72
2022-12-26T13:04:44.578Z,2.22
2022-12-26T13:07:31.320Z,5.47
2022-12-26T13:10:01.826Z,2.35
2022-12-26T13:12:37.164Z,4.40
2022-12-26T13:15:19.053Z,3.80
2022-12-26T13:18:14.085Z,3.58
2022-12-26T13:20:48.755Z,1.25
2022-12-26T13:23:49.892Z,2.85
2022-12-26T13:26:20.277Z,5.97
2022-12-26T13:29:04.658Z,5.18
2022-12-26T13:31:36.142Z,5.40
2022-12-26T13:34:04.316Z,3.08
2022-12-26T13:36:38.079Z,4.55
2022-12-26T13:39:07.821Z,1.58
2022-12-26T13:41:55.728Z,2.75
2022-12-26T13:44:22.975Z,1.73
2022-12-26T13:46:49.631Z,2.97
2022-12-26T13:49:37.225Z,3.38
2022-12-26T13:52:16.044Z,1.98
2022-12-26T13:54:48.798Z,2.05
2022-12-26T13:57:45.741Z,3.13
2022-12-26T14:00:42.371Z,5.15
2022-12-26T14:03:41.542Z,3.72
2022-12-26T14:06:23.722Z,19.23
2022-12-26T14:09:08.636Z,4.03
2022-12-26T14:11:49.802Z,2.80
2022-12-26T14:14:54.075Z,2.78
2022-12-26T14:17:41.155Z,3.10
2022-12-26T14:20:54.287Z,3.20
2022-12-26T14:23:56.277Z,4.15
2022-12-26T14:26:42.604Z,2.58
2022-12-26T14:29:38.080Z,5.05
2022-12-26T14:32:19.937Z,5.90
2022-12-26T14:35:14.193Z,7.22
2022-12-26T14:37:52.135Z,4.55
2022-12-26T14:40:18.998Z,4.03
2022-12-26T14:43:14.216Z,5.15
2022-12-26T14:45:53.175Z,8.27
2022-12-26T14:48:20.110Z,2.70
2022-12-26T14:50:48.610Z,3.97
2022-12-26T14:53:32.140Z,6.40
2022-12-26T14:56:07.996Z,6.97
2022-12-26T14:58:39.973Z,8.38
2022-12-26T15:01:09.994Z,7.50
2022-12-26T15:03:39.872Z,4.45
2022-12-26T15:06:19.028Z,7.00
2022-12-26T15:09:14.747Z,5.13
2022-12-26T15:12:19.168Z,8.27
2022-12-26T15:15:21.139Z,7.97
2022-12-26T15:18:03.898Z,7.03
2022-12-26T15:21:01.336Z,7.72
2022-12-26T15:23:41.574Z,8.63
2022-12-26T15:26:20.600Z,5.18
2022-12-26T15:29:16.100Z,8.35
2022-12-26T15:32:04.345Z,10.23
2022-12-26T15:35:01.296Z,8.40
2022-12-26T15:37:58.548Z,12.07
2022-12-26T15:40:52.138Z,28.20
2022-12-26T15:43:38.470Z,45.25
2022-12-26T15:46:27.740Z,59.80
2022-12-26T15:49:14.525Z,73.53
2022-12-26T15:52:00.770Z,18.45
2022-12-26T15:55:21.557Z,9.70
2022-12-26T15:58:31.201Z,11.32
2022-12-26T16:04:54.032Z,14.32
2022-12-26T16:07:39.402Z,10.50
2022-12-26T16:10:25.906Z,13.25
2022-12-26T16:13:14.728Z,7.10
2022-12-26T16:15:57.537Z,9.80
2022-12-26T16:18:33.029Z,5.72
2022-12-26T16:21:25.577Z,15.17
2022-12-26T16:23:54.301Z,8.67
2022-12-26T16:26:27.764Z,8.95
2022-12-26T16:28:56.378Z,9.77
2022-12-26T16:31:28.859Z,7.40
2022-12-26T16:33:58.905Z,8.53
2022-12-26T16:39:12.802Z,8.48
2022-12-26T16:42:04.915Z,7.40
2022-12-26T16:44:35.533Z,7.80
2022-12-26T16:47:09.511Z,8.65
2022-12-26T16:49:37.669Z,8.60
2022-12-26T16:52:07.515Z,8.97
2022-12-26T16:54:40.223Z,10.80
2022-12-26T16:57:19.608Z,9.13
2022-12-26T16:59:52.196Z,8.57
2022-12-26T17:02:26.523Z,16.43
2022-12-26T17:05:00.031Z,8.13
2022-12-26T17:07:27.921Z,11.07
2022-12-26T17:09:59.271Z,7.77
2022-12-26T17:12:32.656Z,10.50
2022-12-26T17:15:01.505Z,9.37
2022-12-26T17:17:37.961Z,18.23
2022-12-26T17:20:23.141Z,15.70
2022-12-26T17:22:54.311Z,17.55
2022-12-26T17:25:26.744Z,11.07
2022-12-26T17:28:12.491Z,14.67
2022-12-26T17:30:45.476Z,9.83
2022-12-26T17:33:11.985Z,7.23
2022-12-26T17:36:25.301Z,6.70
2022-12-26T17:38:28.079Z,12.90
2022-12-26T17:41:01.638Z,9.47
2022-12-26T17:43:34.927Z,7.78
2022-12-26T17:46:03.531Z,8.00
2022-12-26T17:48:30.319Z,9.87
2022-12-26T17:51:01.165Z,11.73
2022-12-26T17:53:40.353Z,9.97
2022-12-26T17:56:19.977Z,12.40
2022-12-26T17:58:47.606Z,8.57
2022-12-26T18:01:20.651Z,10.20
2022-12-26T18:03:48.278Z,9.53
2022-12-26T18:06:17.158Z,16.10
2022-12-26T18:08:44.411Z,11.97
2022-12-26T18:11:12.775Z,9.57
2022-12-26T18:13:40.110Z,9.77
2022-12-26T18:16:07.996Z,8.33
2022-12-26T18:18:34.830Z,19.13
2022-12-26T18:21:03.413Z,9.65
2022-12-26T18:23:30.099Z,8.13
2022-12-26T18:26:00.364Z,8.57
2022-12-26T18:28:27.896Z,7.57
2022-12-26T18:30:56.854Z,13.23
2022-12-26T18:33:23.605Z,6.67
2022-12-26T18:35:51.723Z,10.10
2022-12-26T18:38:20.648Z,10.33
2022-12-26T18:40:58.039Z,9.60
2022-12-26T18:43:25.079Z,12.43
2022-12-26T18:45:53.105Z,6.43
2022-12-26T18:48:20.243Z,15.00
2022-12-26T18:50:47.439Z,21.33
2022-12-26T18:53:14.185Z,12.07
2022-12-26T18:55:41.173Z,13.47
2022-12-26T18:58:08.318Z,12.43
2022-12-26T19:00:36.653Z,17.13
2022-12-26T19:03:05.100Z,19.47
2022-12-26T19:05:33.789Z,9.67
2022-12-26T19:08:01.972Z,24.27
2022-12-26T19:10:32.620Z,14.47
2022-12-26T19:13:05.866Z,11.33
2022-12-26T19:15:35.493Z,15.93
2022-12-26T19:18:04.210Z,15.33
2022-12-26T19:20:31.247Z,14.57
2022-12-26T19:22:58.159Z,16.43
2022-12-26T19:25:26.065Z,19.73
2022-12-26T19:27:53.235Z,26.10
2022-12-26T19:30:20.532Z,13.70
2022-12-26T19:32:47.724Z,22.37
2022-12-26T19:35:15.389Z,24.50
2022-12-26T19:37:44.760Z,26.47
2022-12-26T19:40:13.098Z,26.40
2022-12-26T19:42:39.740Z,10.30
2022-12-26T19:45:08.506Z,11.57
2022-12-26T19:47:35.839Z,9.03
2022-12-26T19:50:04.578Z,20.60
2022-12-26T19:52:31.261Z,15.80
2022-12-26T19:54:58.161Z,24.90
2022-12-26T19:57:24.865Z,23.43
2022-12-26T19:59:51.614Z,21.73
2022-12-26T20:02:26.440Z,13.10
2022-12-26T20:04:53.648Z,14.63
2022-12-26T20:07:20.341Z,16.87
2022-12-26T20:09:46.925Z,33.80
2022-12-26T20:12:13.696Z,21.60
2022-12-26T20:14:40.412Z,13.97
2022-12-26T20:17:09.459Z,11.47
2022-12-26T20:19:39.254Z,16.17
2022-12-26T20:22:07.236Z,8.60
2022-12-26T20:24:34.221Z,11.67
2022-12-26T20:27:01.919Z,16.00
2022-12-26T20:29:28.553Z,22.00
2022-12-26T20:31:55.439Z,21.00
2022-12-26T20:34:22.365Z,37.83
2022-12-26T20:36:49.182Z,20.57
2022-12-26T20:39:18.222Z,21.00
2022-12-26T20:41:45.619Z,8.60
2022-12-26T20:44:14.014Z,9.33
2022-12-26T20:46:41.702Z,4.43
2022-12-26T20:49:09.771Z,6.33
2022-12-26T20:51:38.878Z,9.90
2022-12-26T20:54:07.595Z,10.40
2022-12-26T20:56:35.745Z,8.00
2022-12-26T20:59:03.233Z,7.47
2022-12-26T21:01:30.326Z,6.17
2022-12-26T21:03:57.827Z,10.83
2022-12-26T21:06:27.842Z,6.87
2022-12-26T21:08:56.375Z,5.83
2022-12-26T21:11:29.603Z,7.63
2022-12-26T21:13:59.996Z,9.53
2022-12-26T21:16:38.250Z,5.77
2022-12-26T21:19:10.653Z,7.63
2022-12-26T21:21:43.599Z,7.20
2022-12-26T21:24:18.613Z,7.30
2022-12-26T21:26:46.785Z,5.50
2022-12-26T21:29:20.054Z,6.27
2022-12-26T21:31:47.940Z,6.03
2022-12-26T21:34:16.472Z,8.03
2022-12-26T21:37:02.883Z,6.67
2022-12-26T21:39:30.437Z,8.77
2022-12-26T21:41:57.215Z,7.67
2022-12-26T21:44:23.820Z,6.97
2022-12-26T21:46:50.520Z,6.77
2022-12-26T21:49:17.516Z,7.27
2022-12-26T21:51:44.310Z,4.67
2022-12-26T21:54:29.669Z,8.50
2022-12-26T21:56:56.411Z,7.70
2022-12-26T21:59:41.762Z,5.13
2022-12-26T22:02:33.401Z,6.53
2022-12-26T22:05:01.134Z,11.60
2022-12-26T22:07:29.089Z,7.67
2022-12-26T22:09:55.908Z,12.80
2022-12-26T22:12:41.262Z,5.43
2022-12-26T22:15:28.900Z,6.73
2022-12-26T22:17:55.955Z,7.00
2022-12-26T22:20:23.205Z,8.83
2022-12-26T22:22:50.163Z,5.10
2022-12-26T22:25:16.888Z,10.10
2022-12-26T22:27:43.565Z,5.50
2022-12-26T22:30:12.113Z,8.63
2022-12-26T22:32:38.921Z,11.17
2022-12-26T22:35:06.027Z,8.57
2022-12-26T22:37:32.647Z,4.40
2022-12-26T22:39:59.348Z,8.30
2022-12-26T22:42:25.951Z,5.33
2022-12-26T22:44:52.558Z,6.80
2022-12-26T22:47:19.298Z,8.57
2022-12-26T22:49:45.864Z,5.37
2022-12-26T22:52:15.844Z,7.50
2022-12-26T22:54:43.690Z,7.03
2022-12-26T22:57:10.376Z,5.83
2022-12-26T23:00:06.928Z,6.57
2022-12-26T23:02:24.414Z,4.93
2022-12-26T23:04:51.687Z,4.50
2022-12-26T23:07:20.856Z,5.20
2022-12-26T23:09:54.148Z,7.00
2022-12-26T23:12:39.717Z,3.13
2022-12-26T23:15:07.341Z,5.53
2022-12-26T23:17:56.555Z,4.40
2022-12-26T23:20:47.777Z,5.80
2022-12-26T23:23:14.932Z,5.90
2022-12-26T23:25:42.047Z,5.17
2022-12-26T23:28:29.073Z,4.70
2022-12-26T23:30:55.976Z,6.17
2022-12-26T23:33:23.250Z,6.27
2022-12-26T23:35:50.754Z,9.57
2022-12-26T23:38:17.558Z,10.07
2022-12-26T23:40:44.411Z,6.60
2022-12-26T23:43:11.134Z,7.83
2022-12-26T23:45:42.752Z,5.43
2022-12-26T23:48:10.825Z,7.23
2022-12-26T23:50:38.047Z,5.53
2022-12-26T23:53:05.324Z,7.17
2022-12-26T23:55:32.297Z,3.77
2022-12-26T23:57:59.057Z,4.80
